Terminal Aerodrome Forecast
Issued by NWS Goodland, KS

Home | Current Version | Previous Version | Text Only | Print | Product List | Glossary On
Versions: 1 2 3 4 5 6 7 8 9 10 11 12 13 14 15 16 17 18 19
252
FTUS43 KGLD 201750
TAFGLD
TAF
KGLD 201750Z 2018/2118 20010KT P6SM SKC
     FM202100 17008KT P6SM SCT090
     FM202300 13008KT P6SM SCT050 BKN090
     FM210500 18012KT P6SM FEW200 WS006/19040KT
     FM211300 24010KT P6SM FEW200=

USA.gov is the U.S. government's official web portal to all federal, state and local government web resources and services.